sensor_id;sensor_type;location;lat;lon;timestamp;P1;durP1;ratioP1;P2;durP2;ratioP2
25057;SDS011;13057;50.978;11.034;2022-12-18T00:00:59;17.13;;;8.25;;
25057;SDS011;13057;50.978;11.034;2022-12-18T00:03:30;15.10;;;8.68;;
25057;SDS011;13057;50.978;11.034;2022-12-18T00:05:59;14.27;;;8.85;;
25057;SDS011;13057;50.978;11.034;2022-12-18T00:08:25;16.33;;;9.00;;
25057;SDS011;13057;50.978;11.034;2022-12-18T00:10:51;15.52;;;9.15;;
25057;SDS011;13057;50.978;11.034;2022-12-18T00:13:17;15.20;;;8.90;;
25057;SDS011;13057;50.978;11.034;2022-12-18T00:15:43;15.48;;;8.98;;
25057;SDS011;13057;50.978;11.034;2022-12-18T00:18:09;14.70;;;8.75;;
25057;SDS011;13057;50.978;11.034;2022-12-18T00:20:35;13.93;;;9.20;;
25057;SDS011;13057;50.978;11.034;2022-12-18T00:23:02;16.17;;;9.05;;
25057;SDS011;13057;50.978;11.034;2022-12-18T00:25:28;22.02;;;9.90;;
25057;SDS011;13057;50.978;11.034;2022-12-18T00:27:54;17.02;;;9.20;;
25057;SDS011;13057;50.978;11.034;2022-12-18T00:30:19;14.70;;;8.75;;
25057;SDS011;13057;50.978;11.034;2022-12-18T00:32:45;19.42;;;10.32;;
25057;SDS011;13057;50.978;11.034;2022-12-18T00:35:11;17.33;;;9.75;;
25057;SDS011;13057;50.978;11.034;2022-12-18T00:37:37;18.90;;;8.90;;
25057;SDS011;13057;50.978;11.034;2022-12-18T00:40:03;13.85;;;8.38;;
25057;SDS011;13057;50.978;11.034;2022-12-18T00:42:29;15.88;;;8.10;;
25057;SDS011;13057;50.978;11.034;2022-12-18T00:45:07;15.25;;;8.35;;
25057;SDS011;13057;50.978;11.034;2022-12-18T00:47:33;14.55;;;8.57;;
25057;SDS011;13057;50.978;11.034;2022-12-18T00:49:59;14.50;;;8.35;;
25057;SDS011;13057;50.978;11.034;2022-12-18T00:52:25;18.38;;;9.85;;
25057;SDS011;13057;50.978;11.034;2022-12-18T00:54:51;15.57;;;9.10;;
25057;SDS011;13057;50.978;11.034;2022-12-18T00:57:16;14.55;;;8.45;;
25057;SDS011;13057;50.978;11.034;2022-12-18T00:59:42;15.48;;;9.40;;
25057;SDS011;13057;50.978;11.034;2022-12-18T01:02:08;13.77;;;8.18;;
25057;SDS011;13057;50.978;11.034;2022-12-18T01:04:34;12.88;;;8.35;;
25057;SDS011;13057;50.978;11.034;2022-12-18T01:07:00;16.67;;;9.00;;
25057;SDS011;13057;50.978;11.034;2022-12-18T01:09:26;15.48;;;9.18;;
25057;SDS011;13057;50.978;11.034;2022-12-18T01:11:52;16.95;;;8.90;;
25057;SDS011;13057;50.978;11.034;2022-12-18T01:14:17;15.70;;;8.30;;
25057;SDS011;13057;50.978;11.034;2022-12-18T01:16:43;14.77;;;7.82;;
25057;SDS011;13057;50.978;11.034;2022-12-18T01:19:09;17.60;;;8.77;;
25057;SDS011;13057;50.978;11.034;2022-12-18T01:21:35;15.10;;;8.75;;
25057;SDS011;13057;50.978;11.034;2022-12-18T01:24:01;14.35;;;8.07;;
25057;SDS011;13057;50.978;11.034;2022-12-18T01:26:27;15.57;;;8.35;;
25057;SDS011;13057;50.978;11.034;2022-12-18T01:28:55;15.43;;;8.45;;
25057;SDS011;13057;50.978;11.034;2022-12-18T01:31:22;13.50;;;8.43;;
25057;SDS011;13057;50.978;11.034;2022-12-18T01:33:50;11.85;;;7.70;;
25057;SDS011;13057;50.978;11.034;2022-12-18T01:36:21;17.77;;;10.40;;
25057;SDS011;13057;50.978;11.034;2022-12-18T01:38:50;14.35;;;7.63;;
25057;SDS011;13057;50.978;11.034;2022-12-18T01:41:17;14.90;;;8.23;;
25057;SDS011;13057;50.978;11.034;2022-12-18T01:43:46;14.48;;;8.57;;
25057;SDS011;13057;50.978;11.034;2022-12-18T01:46:17;13.57;;;7.60;;
25057;SDS011;13057;50.978;11.034;2022-12-18T01:48:45;12.20;;;7.07;;
25057;SDS011;13057;50.978;11.034;2022-12-18T01:51:13;15.90;;;8.50;;
25057;SDS011;13057;50.978;11.034;2022-12-18T01:53:40;15.73;;;8.90;;
25057;SDS011;13057;50.978;11.034;2022-12-18T01:56:07;14.02;;;7.90;;
25057;SDS011;13057;50.978;11.034;2022-12-18T01:58:39;16.77;;;9.48;;
25057;SDS011;13057;50.978;11.034;2022-12-18T02:01:11;15.98;;;8.93;;
25057;SDS011;13057;50.978;11.034;2022-12-18T02:03:40;15.82;;;8.77;;
25057;SDS011;13057;50.978;11.034;2022-12-18T02:06:12;18.70;;;9.63;;
25057;SDS011;13057;50.978;11.034;2022-12-18T02:08:53;17.20;;;9.70;;
25057;SDS011;13057;50.978;11.034;2022-12-18T02:11:36;16.08;;;9.90;;
25057;SDS011;13057;50.978;11.034;2022-12-18T02:17:01;14.93;;;9.18;;
25057;SDS011;13057;50.978;11.034;2022-12-18T02:19:39;14.05;;;8.82;;
25057;SDS011;13057;50.978;11.034;2022-12-18T02:22:24;13.75;;;8.75;;
25057;SDS011;13057;50.978;11.034;2022-12-18T02:25:12;20.23;;;9.50;;
25057;SDS011;13057;50.978;11.034;2022-12-18T02:27:49;16.10;;;9.15;;
25057;SDS011;13057;50.978;11.034;2022-12-18T02:30:17;15.55;;;9.13;;
25057;SDS011;13057;50.978;11.034;2022-12-18T02:32:46;19.63;;;10.00;;
25057;SDS011;13057;50.978;11.034;2022-12-18T02:35:18;15.82;;;9.05;;
25057;SDS011;13057;50.978;11.034;2022-12-18T02:37:47;16.17;;;9.13;;
25057;SDS011;13057;50.978;11.034;2022-12-18T02:40:13;14.35;;;9.00;;
25057;SDS011;13057;50.978;11.034;2022-12-18T02:42:41;18.10;;;9.00;;
25057;SDS011;13057;50.978;11.034;2022-12-18T02:45:07;15.88;;;9.10;;
25057;SDS011;13057;50.978;11.034;2022-12-18T02:47:34;19.58;;;9.50;;
25057;SDS011;13057;50.978;11.034;2022-12-18T02:50:07;16.38;;;8.77;;
25057;SDS011;13057;50.978;11.034;2022-12-18T02:52:52;16.25;;;8.35;;
25057;SDS011;13057;50.978;11.034;2022-12-18T02:55:44;17.52;;;8.88;;
25057;SDS011;13057;50.978;11.034;2022-12-18T03:00:59;17.48;;;9.63;;
25057;SDS011;13057;50.978;11.034;2022-12-18T03:03:38;17.63;;;9.73;;
25057;SDS011;13057;50.978;11.034;2022-12-18T03:06:09;16.38;;;9.05;;
25057;SDS011;13057;50.978;11.034;2022-12-18T03:08:42;16.35;;;9.43;;
25057;SDS011;13057;50.978;11.034;2022-12-18T03:11:12;16.05;;;9.60;;
25057;SDS011;13057;50.978;11.034;2022-12-18T03:13:39;13.15;;;8.32;;
25057;SDS011;13057;50.978;11.034;2022-12-18T03:16:11;15.13;;;8.27;;
25057;SDS011;13057;50.978;11.034;2022-12-18T03:18:43;17.00;;;9.27;;
25057;SDS011;13057;50.978;11.034;2022-12-18T03:21:19;17.17;;;10.18;;
25057;SDS011;13057;50.978;11.034;2022-12-18T03:23:51;17.30;;;9.93;;
25057;SDS011;13057;50.978;11.034;2022-12-18T03:26:20;18.35;;;9.55;;
25057;SDS011;13057;50.978;11.034;2022-12-18T03:28:51;19.47;;;10.53;;
25057;SDS011;13057;50.978;11.034;2022-12-18T03:31:22;18.95;;;10.73;;
25057;SDS011;13057;50.978;11.034;2022-12-18T03:33:53;17.70;;;9.95;;
25057;SDS011;13057;50.978;11.034;2022-12-18T03:38:47;17.33;;;9.52;;
25057;SDS011;13057;50.978;11.034;2022-12-18T03:41:16;17.70;;;10.13;;
25057;SDS011;13057;50.978;11.034;2022-12-18T03:43:49;18.00;;;9.65;;
25057;SDS011;13057;50.978;11.034;2022-12-18T03:46:24;14.85;;;9.23;;
25057;SDS011;13057;50.978;11.034;2022-12-18T03:49:11;14.48;;;9.27;;
25057;SDS011;13057;50.978;11.034;2022-12-18T03:51:45;18.17;;;9.73;;
25057;SDS011;13057;50.978;11.034;2022-12-18T03:54:17;18.65;;;10.30;;
25057;SDS011;13057;50.978;11.034;2022-12-18T03:56:46;22.15;;;11.40;;
25057;SDS011;13057;50.978;11.034;2022-12-18T03:59:16;22.88;;;14.43;;
25057;SDS011;13057;50.978;11.034;2022-12-18T04:01:46;27.33;;;17.38;;
25057;SDS011;13057;50.978;11.034;2022-12-18T04:04:14;27.65;;;18.55;;
25057;SDS011;13057;50.978;11.034;2022-12-18T04:06:43;27.30;;;18.27;;
25057;SDS011;13057;50.978;11.034;2022-12-18T04:09:10;28.67;;;18.25;;
25057;SDS011;13057;50.978;11.034;2022-12-18T04:11:37;27.25;;;18.40;;
25057;SDS011;13057;50.978;11.034;2022-12-18T04:14:03;18.48;;;11.63;;
25057;SDS011;13057;50.978;11.034;2022-12-18T04:16:29;20.45;;;12.15;;
25057;SDS011;13057;50.978;11.034;2022-12-18T04:18:55;26.27;;;16.50;;
25057;SDS011;13057;50.978;11.034;2022-12-18T04:21:20;25.23;;;16.52;;
25057;SDS011;13057;50.978;11.034;2022-12-18T04:23:47;26.85;;;16.73;;
25057;SDS011;13057;50.978;11.034;2022-12-18T04:26:14;27.42;;;17.30;;
25057;SDS011;13057;50.978;11.034;2022-12-18T04:28:39;27.95;;;17.55;;
25057;SDS011;13057;50.978;11.034;2022-12-18T04:31:05;23.33;;;16.98;;
25057;SDS011;13057;50.978;11.034;2022-12-18T04:33:31;24.88;;;16.92;;
25057;SDS011;13057;50.978;11.034;2022-12-18T04:35:57;23.10;;;16.58;;
25057;SDS011;13057;50.978;11.034;2022-12-18T04:38:23;23.98;;;15.60;;
25057;SDS011;13057;50.978;11.034;2022-12-18T04:40:49;22.90;;;16.40;;
25057;SDS011;13057;50.978;11.034;2022-12-18T04:43:15;20.05;;;14.60;;
25057;SDS011;13057;50.978;11.034;2022-12-18T04:45:41;22.55;;;15.15;;
25057;SDS011;13057;50.978;11.034;2022-12-18T04:48:06;21.17;;;13.38;;
25057;SDS011;13057;50.978;11.034;2022-12-18T04:50:32;23.90;;;12.90;;
25057;SDS011;13057;50.978;11.034;2022-12-18T04:52:58;25.83;;;12.82;;
25057;SDS011;13057;50.978;11.034;2022-12-18T04:55:24;21.52;;;12.90;;
25057;SDS011;13057;50.978;11.034;2022-12-18T04:57:50;24.08;;;13.68;;
25057;SDS011;13057;50.978;11.034;2022-12-18T05:00:16;23.15;;;13.13;;
25057;SDS011;13057;50.978;11.034;2022-12-18T05:02:43;23.90;;;12.85;;
25057;SDS011;13057;50.978;11.034;2022-12-18T05:05:08;21.13;;;12.45;;
25057;SDS011;13057;50.978;11.034;2022-12-18T05:07:34;22.48;;;13.25;;
25057;SDS011;13057;50.978;11.034;2022-12-18T05:10:00;22.30;;;13.75;;
25057;SDS011;13057;50.978;11.034;2022-12-18T05:12:26;21.40;;;12.95;;
25057;SDS011;13057;50.978;11.034;2022-12-18T05:14:52;21.80;;;13.18;;
25057;SDS011;13057;50.978;11.034;2022-12-18T05:17:18;21.23;;;13.05;;
25057;SDS011;13057;50.978;11.034;2022-12-18T05:19:44;23.38;;;13.50;;
25057;SDS011;13057;50.978;11.034;2022-12-18T05:22:09;20.73;;;13.25;;
25057;SDS011;13057;50.978;11.034;2022-12-18T05:24:35;23.15;;;13.30;;
25057;SDS011;13057;50.978;11.034;2022-12-18T05:27:01;21.25;;;12.73;;
25057;SDS011;13057;50.978;11.034;2022-12-18T05:29:27;21.40;;;13.00;;
25057;SDS011;13057;50.978;11.034;2022-12-18T05:31:53;22.08;;;12.77;;
25057;SDS011;13057;50.978;11.034;2022-12-18T05:34:19;21.85;;;12.25;;
25057;SDS011;13057;50.978;11.034;2022-12-18T05:36:44;21.17;;;13.25;;
25057;SDS011;13057;50.978;11.034;2022-12-18T05:39:11;21.23;;;12.90;;
25057;SDS011;13057;50.978;11.034;2022-12-18T05:41:36;20.02;;;13.15;;
25057;SDS011;13057;50.978;11.034;2022-12-18T05:44:02;20.60;;;12.43;;
25057;SDS011;13057;50.978;11.034;2022-12-18T05:46:28;25.50;;;13.13;;
25057;SDS011;13057;50.978;11.034;2022-12-18T05:48:54;26.33;;;15.82;;
25057;SDS011;13057;50.978;11.034;2022-12-18T05:51:21;23.45;;;16.48;;
25057;SDS011;13057;50.978;11.034;2022-12-18T05:53:47;22.30;;;15.63;;
25057;SDS011;13057;50.978;11.034;2022-12-18T05:56:16;24.67;;;15.80;;
25057;SDS011;13057;50.978;11.034;2022-12-18T05:58:46;22.48;;;15.52;;
25057;SDS011;13057;50.978;11.034;2022-12-18T06:01:18;24.20;;;16.75;;
25057;SDS011;13057;50.978;11.034;2022-12-18T06:03:45;28.77;;;16.60;;
25057;SDS011;13057;50.978;11.034;2022-12-18T06:06:15;23.42;;;16.77;;
25057;SDS011;13057;50.978;11.034;2022-12-18T06:08:43;26.60;;;17.20;;
25057;SDS011;13057;50.978;11.034;2022-12-18T06:11:10;26.70;;;17.40;;
25057;SDS011;13057;50.978;11.034;2022-12-18T06:13:36;25.15;;;17.40;;
25057;SDS011;13057;50.978;11.034;2022-12-18T06:16:04;23.92;;;17.10;;
25057;SDS011;13057;50.978;11.034;2022-12-18T06:18:30;24.80;;;17.27;;
25057;SDS011;13057;50.978;11.034;2022-12-18T06:20:57;24.30;;;17.10;;
25057;SDS011;13057;50.978;11.034;2022-12-18T06:23:24;23.98;;;16.65;;
25057;SDS011;13057;50.978;11.034;2022-12-18T06:25:51;28.25;;;17.27;;
25057;SDS011;13057;50.978;11.034;2022-12-18T06:28:17;25.55;;;16.50;;
25057;SDS011;13057;50.978;11.034;2022-12-18T06:30:43;25.85;;;16.92;;
25057;SDS011;13057;50.978;11.034;2022-12-18T06:33:10;27.30;;;17.45;;
25057;SDS011;13057;50.978;11.034;2022-12-18T06:35:36;23.92;;;16.33;;
25057;SDS011;13057;50.978;11.034;2022-12-18T06:38:02;26.17;;;16.85;;
25057;SDS011;13057;50.978;11.034;2022-12-18T06:40:28;25.90;;;17.35;;
25057;SDS011;13057;50.978;11.034;2022-12-18T06:42:54;22.75;;;16.08;;
25057;SDS011;13057;50.978;11.034;2022-12-18T06:45:20;23.23;;;16.20;;
25057;SDS011;13057;50.978;11.034;2022-12-18T06:47:46;25.30;;;16.02;;
25057;SDS011;13057;50.978;11.034;2022-12-18T06:50:12;25.80;;;16.70;;
25057;SDS011;13057;50.978;11.034;2022-12-18T06:52:38;24.88;;;16.35;;
25057;SDS011;13057;50.978;11.034;2022-12-18T06:55:08;26.85;;;16.67;;
25057;SDS011;13057;50.978;11.034;2022-12-18T06:57:34;25.48;;;17.13;;
25057;SDS011;13057;50.978;11.034;2022-12-18T07:00:00;24.48;;;17.58;;
25057;SDS011;13057;50.978;11.034;2022-12-18T07:02:26;24.52;;;16.40;;
25057;SDS011;13057;50.978;11.034;2022-12-18T07:04:52;22.65;;;15.68;;
25057;SDS011;13057;50.978;11.034;2022-12-18T07:07:19;26.48;;;16.90;;
25057;SDS011;13057;50.978;11.034;2022-12-18T07:09:44;26.42;;;17.08;;
25057;SDS011;13057;50.978;11.034;2022-12-18T07:12:10;25.83;;;16.63;;
25057;SDS011;13057;50.978;11.034;2022-12-18T07:14:36;26.23;;;16.75;;
25057;SDS011;13057;50.978;11.034;2022-12-18T07:17:02;24.30;;;17.30;;
25057;SDS011;13057;50.978;11.034;2022-12-18T07:19:28;25.25;;;16.92;;
25057;SDS011;13057;50.978;11.034;2022-12-18T07:21:54;27.60;;;17.23;;
25057;SDS011;13057;50.978;11.034;2022-12-18T07:24:20;26.08;;;17.25;;
25057;SDS011;13057;50.978;11.034;2022-12-18T07:26:46;24.80;;;16.95;;
25057;SDS011;13057;50.978;11.034;2022-12-18T07:29:12;24.70;;;17.63;;
25057;SDS011;13057;50.978;11.034;2022-12-18T07:31:38;29.60;;;18.45;;
25057;SDS011;13057;50.978;11.034;2022-12-18T07:34:04;27.10;;;18.05;;
25057;SDS011;13057;50.978;11.034;2022-12-18T07:36:30;25.40;;;17.08;;
25057;SDS011;13057;50.978;11.034;2022-12-18T07:38:56;28.58;;;18.05;;
25057;SDS011;13057;50.978;11.034;2022-12-18T07:41:22;26.30;;;17.25;;
25057;SDS011;13057;50.978;11.034;2022-12-18T07:43:48;28.92;;;18.17;;
25057;SDS011;13057;50.978;11.034;2022-12-18T07:46:14;29.95;;;18.50;;
25057;SDS011;13057;50.978;11.034;2022-12-18T07:48:41;27.90;;;19.00;;
25057;SDS011;13057;50.978;11.034;2022-12-18T07:51:08;26.77;;;18.20;;
25057;SDS011;13057;50.978;11.034;2022-12-18T07:53:35;28.70;;;18.13;;
25057;SDS011;13057;50.978;11.034;2022-12-18T07:56:02;29.80;;;19.45;;
25057;SDS011;13057;50.978;11.034;2022-12-18T07:58:30;29.25;;;18.83;;
25057;SDS011;13057;50.978;11.034;2022-12-18T08:01:04;28.50;;;19.00;;
25057;SDS011;13057;50.978;11.034;2022-12-18T08:03:32;28.85;;;18.65;;
25057;SDS011;13057;50.978;11.034;2022-12-18T08:06:00;31.05;;;18.98;;
25057;SDS011;13057;50.978;11.034;2022-12-18T08:08:27;26.05;;;17.65;;
25057;SDS011;13057;50.978;11.034;2022-12-18T08:10:53;33.03;;;19.67;;
25057;SDS011;13057;50.978;11.034;2022-12-18T08:13:19;28.58;;;18.58;;
25057;SDS011;13057;50.978;11.034;2022-12-18T08:15:46;33.88;;;19.92;;
25057;SDS011;13057;50.978;11.034;2022-12-18T08:18:12;31.55;;;21.23;;
25057;SDS011;13057;50.978;11.034;2022-12-18T08:20:37;28.48;;;18.63;;
25057;SDS011;13057;50.978;11.034;2022-12-18T08:23:03;29.70;;;19.70;;
25057;SDS011;13057;50.978;11.034;2022-12-18T08:25:29;31.73;;;20.50;;
25057;SDS011;13057;50.978;11.034;2022-12-18T08:27:55;32.42;;;20.65;;
25057;SDS011;13057;50.978;11.034;2022-12-18T08:30:21;32.22;;;19.20;;
25057;SDS011;13057;50.978;11.034;2022-12-18T08:32:50;29.35;;;19.52;;
25057;SDS011;13057;50.978;11.034;2022-12-18T08:35:18;30.23;;;19.40;;
25057;SDS011;13057;50.978;11.034;2022-12-18T08:37:44;32.13;;;20.70;;
25057;SDS011;13057;50.978;11.034;2022-12-18T08:40:10;32.67;;;19.73;;
25057;SDS011;13057;50.978;11.034;2022-12-18T08:42:36;33.00;;;20.13;;
25057;SDS011;13057;50.978;11.034;2022-12-18T08:45:13;33.97;;;20.70;;
25057;SDS011;13057;50.978;11.034;2022-12-18T08:47:39;29.63;;;20.02;;
25057;SDS011;13057;50.978;11.034;2022-12-18T08:50:05;31.42;;;20.20;;
25057;SDS011;13057;50.978;11.034;2022-12-18T08:52:32;30.20;;;19.83;;
25057;SDS011;13057;50.978;11.034;2022-12-18T08:54:57;28.98;;;19.70;;
25057;SDS011;13057;50.978;11.034;2022-12-18T08:57:23;31.63;;;19.50;;
25057;SDS011;13057;50.978;11.034;2022-12-18T08:59:49;35.10;;;19.63;;
25057;SDS011;13057;50.978;11.034;2022-12-18T09:02:15;31.63;;;19.88;;
25057;SDS011;13057;50.978;11.034;2022-12-18T09:04:41;32.47;;;20.98;;
25057;SDS011;13057;50.978;11.034;2022-12-18T09:07:07;30.63;;;19.70;;
25057;SDS011;13057;50.978;11.034;2022-12-18T09:09:34;30.58;;;20.40;;
25057;SDS011;13057;50.978;11.034;2022-12-18T09:12:00;34.60;;;20.50;;
25057;SDS011;13057;50.978;11.034;2022-12-18T09:14:26;30.33;;;19.25;;
25057;SDS011;13057;50.978;11.034;2022-12-18T09:16:52;32.70;;;20.35;;
25057;SDS011;13057;50.978;11.034;2022-12-18T09:19:18;33.80;;;20.73;;
25057;SDS011;13057;50.978;11.034;2022-12-18T09:21:44;31.25;;;19.52;;
25057;SDS011;13057;50.978;11.034;2022-12-18T09:24:11;37.45;;;20.13;;
25057;SDS011;13057;50.978;11.034;2022-12-18T09:26:38;33.90;;;21.15;;
25057;SDS011;13057;50.978;11.034;2022-12-18T09:29:04;32.40;;;20.15;;
25057;SDS011;13057;50.978;11.034;2022-12-18T09:31:32;31.50;;;20.20;;
25057;SDS011;13057;50.978;11.034;2022-12-18T09:33:58;36.85;;;21.02;;
25057;SDS011;13057;50.978;11.034;2022-12-18T09:36:24;30.00;;;19.50;;
25057;SDS011;13057;50.978;11.034;2022-12-18T09:38:50;38.50;;;22.48;;
25057;SDS011;13057;50.978;11.034;2022-12-18T09:41:22;36.38;;;21.73;;
25057;SDS011;13057;50.978;11.034;2022-12-18T09:44:11;42.97;;;21.58;;
25057;SDS011;13057;50.978;11.034;2022-12-18T09:46:44;33.33;;;20.38;;
25057;SDS011;13057;50.978;11.034;2022-12-18T09:49:18;34.17;;;20.55;;
25057;SDS011;13057;50.978;11.034;2022-12-18T09:51:51;34.58;;;20.08;;
25057;SDS011;13057;50.978;11.034;2022-12-18T09:54:23;34.70;;;20.80;;
25057;SDS011;13057;50.978;11.034;2022-12-18T09:56:56;35.00;;;21.27;;
25057;SDS011;13057;50.978;11.034;2022-12-18T09:59:23;31.83;;;19.70;;
25057;SDS011;13057;50.978;11.034;2022-12-18T10:01:52;30.48;;;20.73;;
25057;SDS011;13057;50.978;11.034;2022-12-18T10:04:18;33.30;;;21.20;;
25057;SDS011;13057;50.978;11.034;2022-12-18T10:06:55;31.90;;;20.15;;
25057;SDS011;13057;50.978;11.034;2022-12-18T10:09:37;36.65;;;21.13;;
25057;SDS011;13057;50.978;11.034;2022-12-18T10:12:20;36.22;;;21.23;;
25057;SDS011;13057;50.978;11.034;2022-12-18T10:15:04;35.55;;;21.52;;
25057;SDS011;13057;50.978;11.034;2022-12-18T10:17:42;33.05;;;20.13;;
25057;SDS011;13057;50.978;11.034;2022-12-18T10:20:27;35.83;;;21.10;;
25057;SDS011;13057;50.978;11.034;2022-12-18T10:25:52;35.65;;;21.75;;
25057;SDS011;13057;50.978;11.034;2022-12-18T10:28:30;35.83;;;21.58;;
25057;SDS011;13057;50.978;11.034;2022-12-18T10:30:58;36.10;;;21.42;;
25057;SDS011;13057;50.978;11.034;2022-12-18T10:33:24;36.30;;;21.60;;
25057;SDS011;13057;50.978;11.034;2022-12-18T10:35:55;34.40;;;21.23;;
25057;SDS011;13057;50.978;11.034;2022-12-18T10:38:22;36.67;;;21.75;;
25057;SDS011;13057;50.978;11.034;2022-12-18T10:40:52;34.10;;;21.15;;
25057;SDS011;13057;50.978;11.034;2022-12-18T10:43:25;34.50;;;20.88;;
25057;SDS011;13057;50.978;11.034;2022-12-18T10:46:00;38.17;;;21.70;;
25057;SDS011;13057;50.978;11.034;2022-12-18T10:48:31;38.00;;;23.15;;
25057;SDS011;13057;50.978;11.034;2022-12-18T10:50:58;39.20;;;22.85;;
25057;SDS011;13057;50.978;11.034;2022-12-18T10:53:26;36.58;;;22.70;;
25057;SDS011;13057;50.978;11.034;2022-12-18T10:55:54;42.72;;;23.98;;
25057;SDS011;13057;50.978;11.034;2022-12-18T10:58:25;38.95;;;23.40;;
25057;SDS011;13057;50.978;11.034;2022-12-18T11:01:04;39.22;;;23.75;;
25057;SDS011;13057;50.978;11.034;2022-12-18T11:03:39;39.08;;;23.65;;
25057;SDS011;13057;50.978;11.034;2022-12-18T11:06:10;36.95;;;22.45;;
25057;SDS011;13057;50.978;11.034;2022-12-18T11:08:37;38.67;;;23.83;;
25057;SDS011;13057;50.978;11.034;2022-12-18T11:11:07;35.88;;;23.33;;
25057;SDS011;13057;50.978;11.034;2022-12-18T11:13:51;38.05;;;21.95;;
25057;SDS011;13057;50.978;11.034;2022-12-18T11:16:24;29.98;;;20.70;;
25057;SDS011;13057;50.978;11.034;2022-12-18T11:18:51;34.20;;;20.98;;
25057;SDS011;13057;50.978;11.034;2022-12-18T11:21:17;38.22;;;21.70;;
25057;SDS011;13057;50.978;11.034;2022-12-18T11:23:46;35.72;;;20.83;;
25057;SDS011;13057;50.978;11.034;2022-12-18T11:26:16;32.55;;;20.35;;
25057;SDS011;13057;50.978;11.034;2022-12-18T11:28:44;33.08;;;20.63;;
25057;SDS011;13057;50.978;11.034;2022-12-18T11:31:21;31.73;;;19.33;;
25057;SDS011;13057;50.978;11.034;2022-12-18T11:33:55;35.70;;;20.67;;
25057;SDS011;13057;50.978;11.034;2022-12-18T11:36:38;34.00;;;20.27;;
25057;SDS011;13057;50.978;11.034;2022-12-18T11:41:45;31.98;;;19.80;;
25057;SDS011;13057;50.978;11.034;2022-12-18T11:44:32;30.52;;;19.42;;
25057;SDS011;13057;50.978;11.034;2022-12-18T11:47:15;34.40;;;19.98;;
25057;SDS011;13057;50.978;11.034;2022-12-18T11:49:56;31.67;;;19.88;;
25057;SDS011;13057;50.978;11.034;2022-12-18T11:52:27;31.15;;;18.77;;
25057;SDS011;13057;50.978;11.034;2022-12-18T11:55:04;32.78;;;19.98;;
25057;SDS011;13057;50.978;11.034;2022-12-18T11:57:40;31.00;;;19.20;;
25057;SDS011;13057;50.978;11.034;2022-12-18T12:00:20;32.22;;;20.08;;
25057;SDS011;13057;50.978;11.034;2022-12-18T12:03:01;31.80;;;20.00;;
25057;SDS011;13057;50.978;11.034;2022-12-18T12:08:27;30.77;;;20.35;;
25057;SDS011;13057;50.978;11.034;2022-12-18T12:11:23;35.13;;;20.88;;
25057;SDS011;13057;50.978;11.034;2022-12-18T12:14:09;31.83;;;21.10;;
25057;SDS011;13057;50.978;11.034;2022-12-18T12:16:57;34.10;;;21.40;;
25057;SDS011;13057;50.978;11.034;2022-12-18T12:25:29;35.70;;;20.95;;
25057;SDS011;13057;50.978;11.034;2022-12-18T12:28:09;31.45;;;20.33;;
25057;SDS011;13057;50.978;11.034;2022-12-18T12:34:01;32.10;;;19.98;;
25057;SDS011;13057;50.978;11.034;2022-12-18T12:36:46;31.70;;;19.80;;
25057;SDS011;13057;50.978;11.034;2022-12-18T12:39:33;34.60;;;20.13;;
25057;SDS011;13057;50.978;11.034;2022-12-18T12:42:05;41.78;;;20.20;;
25057;SDS011;13057;50.978;11.034;2022-12-18T12:44:52;29.08;;;19.48;;
25057;SDS011;13057;50.978;11.034;2022-12-18T12:47:23;30.95;;;19.70;;
25057;SDS011;13057;50.978;11.034;2022-12-18T12:49:53;34.08;;;19.55;;
25057;SDS011;13057;50.978;11.034;2022-12-18T12:52:32;32.42;;;21.20;;
25057;SDS011;13057;50.978;11.034;2022-12-18T12:55:03;30.00;;;19.35;;
25057;SDS011;13057;50.978;11.034;2022-12-18T12:57:53;31.50;;;20.15;;
25057;SDS011;13057;50.978;11.034;2022-12-18T13:00:24;30.02;;;19.92;;
25057;SDS011;13057;50.978;11.034;2022-12-18T13:03:03;30.13;;;19.52;;
25057;SDS011;13057;50.978;11.034;2022-12-18T13:06:09;33.85;;;19.70;;
25057;SDS011;13057;50.978;11.034;2022-12-18T13:08:52;30.80;;;19.52;;
25057;SDS011;13057;50.978;11.034;2022-12-18T13:11:28;34.08;;;20.70;;
25057;SDS011;13057;50.978;11.034;2022-12-18T13:14:20;29.27;;;19.67;;
25057;SDS011;13057;50.978;11.034;2022-12-18T13:19:39;36.88;;;20.38;;
25057;SDS011;13057;50.978;11.034;2022-12-18T13:22:20;33.03;;;20.52;;
25057;SDS011;13057;50.978;11.034;2022-12-18T13:24:54;36.63;;;20.88;;
25057;SDS011;13057;50.978;11.034;2022-12-18T13:36:12;34.45;;;21.23;;
25057;SDS011;13057;50.978;11.034;2022-12-18T13:41:35;32.40;;;20.27;;
25057;SDS011;13057;50.978;11.034;2022-12-18T13:46:51;32.55;;;20.30;;
25057;SDS011;13057;50.978;11.034;2022-12-18T13:49:22;30.30;;;19.27;;
25057;SDS011;13057;50.978;11.034;2022-12-18T13:51:57;31.13;;;19.92;;
25057;SDS011;13057;50.978;11.034;2022-12-18T13:54:28;36.83;;;21.50;;
25057;SDS011;13057;50.978;11.034;2022-12-18T13:56:59;32.80;;;20.60;;
25057;SDS011;13057;50.978;11.034;2022-12-18T13:59:32;33.28;;;19.83;;
25057;SDS011;13057;50.978;11.034;2022-12-18T14:02:00;33.25;;;20.70;;
25057;SDS011;13057;50.978;11.034;2022-12-18T14:04:35;34.03;;;20.92;;
25057;SDS011;13057;50.978;11.034;2022-12-18T14:07:03;33.88;;;21.58;;
25057;SDS011;13057;50.978;11.034;2022-12-18T14:09:35;41.30;;;22.48;;
25057;SDS011;13057;50.978;11.034;2022-12-18T14:12:04;32.25;;;21.33;;
25057;SDS011;13057;50.978;11.034;2022-12-18T14:14:44;39.80;;;21.92;;
25057;SDS011;13057;50.978;11.034;2022-12-18T14:17:12;34.97;;;20.70;;
25057;SDS011;13057;50.978;11.034;2022-12-18T14:19:43;38.35;;;23.25;;
25057;SDS011;13057;50.978;11.034;2022-12-18T14:22:13;36.37;;;21.73;;
25057;SDS011;13057;50.978;11.034;2022-12-18T14:24:45;37.05;;;22.63;;
25057;SDS011;13057;50.978;11.034;2022-12-18T14:27:17;34.45;;;21.40;;
25057;SDS011;13057;50.978;11.034;2022-12-18T14:29:47;34.28;;;21.73;;
25057;SDS011;13057;50.978;11.034;2022-12-18T14:32:15;35.08;;;20.98;;
25057;SDS011;13057;50.978;11.034;2022-12-18T14:34:43;34.92;;;20.98;;
25057;SDS011;13057;50.978;11.034;2022-12-18T14:37:12;39.28;;;22.00;;
25057;SDS011;13057;50.978;11.034;2022-12-18T14:39:40;37.08;;;21.60;;
25057;SDS011;13057;50.978;11.034;2022-12-18T14:42:16;35.72;;;21.55;;
25057;SDS011;13057;50.978;11.034;2022-12-18T14:44:43;41.13;;;20.83;;
25057;SDS011;13057;50.978;11.034;2022-12-18T14:47:13;37.00;;;22.55;;
25057;SDS011;13057;50.978;11.034;2022-12-18T14:49:40;33.20;;;20.02;;
25057;SDS011;13057;50.978;11.034;2022-12-18T14:52:19;35.85;;;20.38;;
25057;SDS011;13057;50.978;11.034;2022-12-18T14:54:56;35.53;;;21.17;;
25057;SDS011;13057;50.978;11.034;2022-12-18T14:57:24;34.90;;;21.42;;
25057;SDS011;13057;50.978;11.034;2022-12-18T15:00:02;38.58;;;21.40;;
25057;SDS011;13057;50.978;11.034;2022-12-18T15:02:31;38.53;;;21.63;;
25057;SDS011;13057;50.978;11.034;2022-12-18T15:05:03;35.38;;;21.30;;
25057;SDS011;13057;50.978;11.034;2022-12-18T15:07:39;40.00;;;22.35;;
25057;SDS011;13057;50.978;11.034;2022-12-18T15:10:11;35.60;;;21.67;;